sensor_id;sensor_type;location;lat;lon;timestamp;P1;durP1;ratioP1;P2;durP2;ratioP2
41663;SDS011;27353;50.906;7.248;2023-12-14T00:00:45;22.63;;;11.85;;
41663;SDS011;27353;50.906;7.248;2023-12-14T00:03:11;22.15;;;14.00;;
41663;SDS011;27353;50.906;7.248;2023-12-14T00:05:36;18.30;;;11.35;;
41663;SDS011;27353;50.906;7.248;2023-12-14T00:08:02;14.15;;;9.52;;
41663;SDS011;27353;50.906;7.248;2023-12-14T00:10:28;13.60;;;10.52;;
41663;SDS011;27353;50.906;7.248;2023-12-14T00:12:54;24.25;;;11.48;;
41663;SDS011;27353;50.906;7.248;2023-12-14T00:15:20;13.93;;;10.15;;
41663;SDS011;27353;50.906;7.248;2023-12-14T00:17:46;19.33;;;9.70;;
41663;SDS011;27353;50.906;7.248;2023-12-14T00:20:12;12.02;;;7.38;;
41663;SDS011;27353;50.906;7.248;2023-12-14T00:22:38;18.98;;;8.75;;
41663;SDS011;27353;50.906;7.248;2023-12-14T00:25:04;13.05;;;8.00;;
41663;SDS011;27353;50.906;7.248;2023-12-14T00:27:30;13.60;;;9.13;;
41663;SDS011;27353;50.906;7.248;2023-12-14T00:29:56;12.85;;;8.95;;
41663;SDS011;27353;50.906;7.248;2023-12-14T00:32:22;11.68;;;7.60;;
41663;SDS011;27353;50.906;7.248;2023-12-14T00:34:47;10.77;;;8.48;;
41663;SDS011;27353;50.906;7.248;2023-12-14T00:37:14;13.55;;;8.98;;
41663;SDS011;27353;50.906;7.248;2023-12-14T00:39:39;14.07;;;8.00;;
41663;SDS011;27353;50.906;7.248;2023-12-14T00:42:05;13.82;;;9.52;;
41663;SDS011;27353;50.906;7.248;2023-12-14T00:44:31;13.00;;;8.13;;
41663;SDS011;27353;50.906;7.248;2023-12-14T00:46:56;14.85;;;7.78;;
41663;SDS011;27353;50.906;7.248;2023-12-14T00:49:23;15.02;;;9.40;;
41663;SDS011;27353;50.906;7.248;2023-12-14T00:51:49;11.02;;;8.40;;
41663;SDS011;27353;50.906;7.248;2023-12-14T00:54:15;15.32;;;8.63;;
41663;SDS011;27353;50.906;7.248;2023-12-14T00:56:40;13.60;;;9.40;;
41663;SDS011;27353;50.906;7.248;2023-12-14T00:59:07;11.77;;;8.70;;
41663;SDS011;27353;50.906;7.248;2023-12-14T01:01:32;11.07;;;8.55;;
41663;SDS011;27353;50.906;7.248;2023-12-14T01:03:58;10.27;;;8.23;;
41663;SDS011;27353;50.906;7.248;2023-12-14T01:06:24;15.90;;;10.32;;
41663;SDS011;27353;50.906;7.248;2023-12-14T01:08:50;14.68;;;8.23;;
41663;SDS011;27353;50.906;7.248;2023-12-14T01:11:16;11.10;;;7.78;;
41663;SDS011;27353;50.906;7.248;2023-12-14T01:13:41;13.13;;;8.80;;
41663;SDS011;27353;50.906;7.248;2023-12-14T01:16:07;9.98;;;8.10;;
41663;SDS011;27353;50.906;7.248;2023-12-14T01:18:33;14.73;;;8.70;;
41663;SDS011;27353;50.906;7.248;2023-12-14T01:20:59;10.25;;;7.90;;
41663;SDS011;27353;50.906;7.248;2023-12-14T01:23:24;13.43;;;8.48;;
41663;SDS011;27353;50.906;7.248;2023-12-14T01:25:50;11.07;;;9.18;;
41663;SDS011;27353;50.906;7.248;2023-12-14T01:28:16;14.68;;;9.43;;
41663;SDS011;27353;50.906;7.248;2023-12-14T01:30:41;11.85;;;8.50;;
41663;SDS011;27353;50.906;7.248;2023-12-14T01:33:07;13.93;;;8.23;;
41663;SDS011;27353;50.906;7.248;2023-12-14T01:35:33;13.30;;;8.20;;
41663;SDS011;27353;50.906;7.248;2023-12-14T01:37:58;14.85;;;9.00;;
41663;SDS011;27353;50.906;7.248;2023-12-14T01:40:24;10.55;;;7.47;;
41663;SDS011;27353;50.906;7.248;2023-12-14T01:42:50;11.05;;;7.68;;
41663;SDS011;27353;50.906;7.248;2023-12-14T01:45:15;14.23;;;8.68;;
41663;SDS011;27353;50.906;7.248;2023-12-14T01:47:42;16.42;;;10.32;;
41663;SDS011;27353;50.906;7.248;2023-12-14T01:50:08;14.02;;;8.60;;
41663;SDS011;27353;50.906;7.248;2023-12-14T01:52:34;17.77;;;8.88;;
41663;SDS011;27353;50.906;7.248;2023-12-14T01:54:59;12.40;;;8.50;;
41663;SDS011;27353;50.906;7.248;2023-12-14T01:57:27;12.88;;;8.45;;
41663;SDS011;27353;50.906;7.248;2023-12-14T01:59:53;13.65;;;9.02;;
41663;SDS011;27353;50.906;7.248;2023-12-14T02:02:19;11.38;;;8.00;;
41663;SDS011;27353;50.906;7.248;2023-12-14T02:04:44;11.95;;;8.68;;
41663;SDS011;27353;50.906;7.248;2023-12-14T02:07:10;12.10;;;8.40;;
41663;SDS011;27353;50.906;7.248;2023-12-14T02:09:36;14.63;;;9.45;;
41663;SDS011;27353;50.906;7.248;2023-12-14T02:12:02;18.60;;;10.05;;
41663;SDS011;27353;50.906;7.248;2023-12-14T02:14:28;15.57;;;10.57;;
41663;SDS011;27353;50.906;7.248;2023-12-14T02:16:53;10.30;;;8.07;;
41663;SDS011;27353;50.906;7.248;2023-12-14T02:19:19;13.60;;;8.48;;
41663;SDS011;27353;50.906;7.248;2023-12-14T02:21:44;15.10;;;9.88;;
41663;SDS011;27353;50.906;7.248;2023-12-14T02:24:10;13.10;;;8.63;;
41663;SDS011;27353;50.906;7.248;2023-12-14T02:26:36;19.25;;;8.85;;
41663;SDS011;27353;50.906;7.248;2023-12-14T02:29:01;11.07;;;9.55;;
41663;SDS011;27353;50.906;7.248;2023-12-14T02:31:27;15.93;;;9.25;;
41663;SDS011;27353;50.906;7.248;2023-12-14T02:33:52;11.32;;;8.65;;
41663;SDS011;27353;50.906;7.248;2023-12-14T02:36:18;17.13;;;8.73;;
41663;SDS011;27353;50.906;7.248;2023-12-14T02:38:44;18.55;;;9.45;;
41663;SDS011;27353;50.906;7.248;2023-12-14T02:41:10;13.38;;;9.80;;
41663;SDS011;27353;50.906;7.248;2023-12-14T02:43:35;15.20;;;9.32;;
41663;SDS011;27353;50.906;7.248;2023-12-14T02:46:03;15.88;;;9.52;;
41663;SDS011;27353;50.906;7.248;2023-12-14T02:48:28;12.05;;;9.48;;
41663;SDS011;27353;50.906;7.248;2023-12-14T02:50:54;17.90;;;12.35;;
41663;SDS011;27353;50.906;7.248;2023-12-14T02:53:20;18.10;;;12.35;;
41663;SDS011;27353;50.906;7.248;2023-12-14T02:55:46;23.45;;;14.10;;
41663;SDS011;27353;50.906;7.248;2023-12-14T02:58:11;33.25;;;17.65;;
41663;SDS011;27353;50.906;7.248;2023-12-14T03:00:37;30.85;;;17.30;;
41663;SDS011;27353;50.906;7.248;2023-12-14T03:03:02;29.98;;;17.35;;
41663;SDS011;27353;50.906;7.248;2023-12-14T03:05:28;36.88;;;20.40;;
41663;SDS011;27353;50.906;7.248;2023-12-14T03:07:53;33.35;;;18.10;;
41663;SDS011;27353;50.906;7.248;2023-12-14T03:10:19;37.05;;;20.55;;
41663;SDS011;27353;50.906;7.248;2023-12-14T03:12:45;31.30;;;17.05;;
41663;SDS011;27353;50.906;7.248;2023-12-14T03:15:10;36.95;;;20.38;;
41663;SDS011;27353;50.906;7.248;2023-12-14T03:17:36;36.38;;;17.15;;
41663;SDS011;27353;50.906;7.248;2023-12-14T03:20:02;42.53;;;17.98;;
41663;SDS011;27353;50.906;7.248;2023-12-14T03:22:30;42.97;;;17.83;;
41663;SDS011;27353;50.906;7.248;2023-12-14T03:24:55;33.63;;;19.20;;
41663;SDS011;27353;50.906;7.248;2023-12-14T03:27:21;31.48;;;18.98;;
41663;SDS011;27353;50.906;7.248;2023-12-14T03:29:48;37.65;;;19.50;;
41663;SDS011;27353;50.906;7.248;2023-12-14T03:32:13;32.75;;;18.60;;
41663;SDS011;27353;50.906;7.248;2023-12-14T03:34:39;34.13;;;19.08;;
41663;SDS011;27353;50.906;7.248;2023-12-14T03:37:05;29.80;;;17.65;;
41663;SDS011;27353;50.906;7.248;2023-12-14T03:39:31;39.13;;;19.25;;
41663;SDS011;27353;50.906;7.248;2023-12-14T03:41:57;31.92;;;17.40;;
41663;SDS011;27353;50.906;7.248;2023-12-14T03:44:22;28.35;;;17.80;;
41663;SDS011;27353;50.906;7.248;2023-12-14T03:46:49;29.05;;;18.27;;
41663;SDS011;27353;50.906;7.248;2023-12-14T03:49:14;23.80;;;15.45;;
41663;SDS011;27353;50.906;7.248;2023-12-14T03:51:40;28.88;;;15.15;;
41663;SDS011;27353;50.906;7.248;2023-12-14T03:54:06;31.65;;;15.80;;
41663;SDS011;27353;50.906;7.248;2023-12-14T03:56:31;22.15;;;13.20;;
41663;SDS011;27353;50.906;7.248;2023-12-14T03:58:57;23.25;;;14.10;;
41663;SDS011;27353;50.906;7.248;2023-12-14T04:01:23;21.45;;;11.25;;
41663;SDS011;27353;50.906;7.248;2023-12-14T04:03:48;17.90;;;12.32;;
41663;SDS011;27353;50.906;7.248;2023-12-14T04:06:14;24.40;;;11.93;;
41663;SDS011;27353;50.906;7.248;2023-12-14T04:08:40;22.33;;;13.23;;
41663;SDS011;27353;50.906;7.248;2023-12-14T04:11:06;20.67;;;11.88;;
41663;SDS011;27353;50.906;7.248;2023-12-14T04:13:32;21.30;;;12.13;;
41663;SDS011;27353;50.906;7.248;2023-12-14T04:15:58;22.63;;;11.95;;
41663;SDS011;27353;50.906;7.248;2023-12-14T04:18:24;20.92;;;12.57;;
41663;SDS011;27353;50.906;7.248;2023-12-14T04:20:49;26.33;;;12.57;;
41663;SDS011;27353;50.906;7.248;2023-12-14T04:23:15;20.63;;;13.80;;
41663;SDS011;27353;50.906;7.248;2023-12-14T04:25:41;24.52;;;12.90;;
41663;SDS011;27353;50.906;7.248;2023-12-14T04:28:06;24.38;;;12.00;;
41663;SDS011;27353;50.906;7.248;2023-12-14T04:30:32;18.70;;;13.90;;
41663;SDS011;27353;50.906;7.248;2023-12-14T04:32:57;24.33;;;13.40;;
41663;SDS011;27353;50.906;7.248;2023-12-14T04:35:23;21.52;;;11.98;;
41663;SDS011;27353;50.906;7.248;2023-12-14T04:37:49;19.50;;;10.60;;
41663;SDS011;27353;50.906;7.248;2023-12-14T04:40:14;22.85;;;11.52;;
41663;SDS011;27353;50.906;7.248;2023-12-14T04:42:40;22.52;;;11.70;;
41663;SDS011;27353;50.906;7.248;2023-12-14T04:45:06;21.45;;;10.82;;
41663;SDS011;27353;50.906;7.248;2023-12-14T04:47:32;19.13;;;11.48;;
41663;SDS011;27353;50.906;7.248;2023-12-14T04:49:57;22.77;;;12.55;;
41663;SDS011;27353;50.906;7.248;2023-12-14T04:52:23;19.05;;;8.70;;
41663;SDS011;27353;50.906;7.248;2023-12-14T04:54:49;14.48;;;8.10;;
41663;SDS011;27353;50.906;7.248;2023-12-14T04:57:14;16.58;;;8.57;;
41663;SDS011;27353;50.906;7.248;2023-12-14T04:59:43;9.07;;;6.55;;
41663;SDS011;27353;50.906;7.248;2023-12-14T05:02:09;10.52;;;7.25;;
41663;SDS011;27353;50.906;7.248;2023-12-14T05:04:34;13.07;;;6.68;;
41663;SDS011;27353;50.906;7.248;2023-12-14T05:07:00;8.45;;;6.03;;
41663;SDS011;27353;50.906;7.248;2023-12-14T05:09:25;9.50;;;6.55;;
41663;SDS011;27353;50.906;7.248;2023-12-14T05:11:51;9.80;;;6.35;;
41663;SDS011;27353;50.906;7.248;2023-12-14T05:14:18;11.57;;;7.07;;
41663;SDS011;27353;50.906;7.248;2023-12-14T05:16:43;7.60;;;6.05;;
41663;SDS011;27353;50.906;7.248;2023-12-14T05:19:09;8.05;;;5.43;;
41663;SDS011;27353;50.906;7.248;2023-12-14T05:21:34;7.80;;;4.15;;
41663;SDS011;27353;50.906;7.248;2023-12-14T05:24:00;4.85;;;3.75;;
41663;SDS011;27353;50.906;7.248;2023-12-14T05:26:26;7.70;;;5.32;;
41663;SDS011;27353;50.906;7.248;2023-12-14T05:28:52;6.70;;;4.68;;
41663;SDS011;27353;50.906;7.248;2023-12-14T05:31:17;6.00;;;3.80;;
41663;SDS011;27353;50.906;7.248;2023-12-14T05:33:43;5.10;;;4.15;;
41663;SDS011;27353;50.906;7.248;2023-12-14T05:36:08;6.50;;;5.40;;
41663;SDS011;27353;50.906;7.248;2023-12-14T05:38:36;5.80;;;4.80;;
41663;SDS011;27353;50.906;7.248;2023-12-14T05:41:03;5.28;;;4.13;;
41663;SDS011;27353;50.906;7.248;2023-12-14T05:43:29;6.90;;;5.15;;
41663;SDS011;27353;50.906;7.248;2023-12-14T05:45:54;5.82;;;5.07;;
41663;SDS011;27353;50.906;7.248;2023-12-14T05:48:20;6.78;;;5.53;;
41663;SDS011;27353;50.906;7.248;2023-12-14T05:50:45;8.35;;;5.93;;
41663;SDS011;27353;50.906;7.248;2023-12-14T05:53:11;9.80;;;5.43;;
41663;SDS011;27353;50.906;7.248;2023-12-14T05:55:37;6.63;;;4.90;;
41663;SDS011;27353;50.906;7.248;2023-12-14T05:58:05;9.70;;;6.45;;
41663;SDS011;27353;50.906;7.248;2023-12-14T06:00:30;8.05;;;5.20;;
41663;SDS011;27353;50.906;7.248;2023-12-14T06:02:56;8.63;;;4.93;;
41663;SDS011;27353;50.906;7.248;2023-12-14T06:05:22;8.90;;;5.75;;
41663;SDS011;27353;50.906;7.248;2023-12-14T06:07:48;7.32;;;5.75;;
41663;SDS011;27353;50.906;7.248;2023-12-14T06:10:13;9.20;;;6.65;;
41663;SDS011;27353;50.906;7.248;2023-12-14T06:12:39;11.43;;;6.97;;
41663;SDS011;27353;50.906;7.248;2023-12-14T06:15:04;7.80;;;5.75;;
41663;SDS011;27353;50.906;7.248;2023-12-14T06:17:31;8.90;;;6.78;;
41663;SDS011;27353;50.906;7.248;2023-12-14T06:19:58;6.57;;;4.93;;
41663;SDS011;27353;50.906;7.248;2023-12-14T06:22:24;8.32;;;5.53;;
41663;SDS011;27353;50.906;7.248;2023-12-14T06:24:51;9.60;;;6.78;;
41663;SDS011;27353;50.906;7.248;2023-12-14T06:27:17;11.93;;;6.43;;
41663;SDS011;27353;50.906;7.248;2023-12-14T06:29:43;6.97;;;5.70;;
41663;SDS011;27353;50.906;7.248;2023-12-14T06:32:08;15.18;;;8.05;;
41663;SDS011;27353;50.906;7.248;2023-12-14T06:34:34;10.15;;;7.13;;
41663;SDS011;27353;50.906;7.248;2023-12-14T06:36:59;14.73;;;8.18;;
41663;SDS011;27353;50.906;7.248;2023-12-14T06:39:26;12.75;;;8.98;;
41663;SDS011;27353;50.906;7.248;2023-12-14T06:41:53;11.93;;;8.07;;
41663;SDS011;27353;50.906;7.248;2023-12-14T06:44:18;14.02;;;8.55;;
41663;SDS011;27353;50.906;7.248;2023-12-14T06:46:44;12.93;;;8.30;;
41663;SDS011;27353;50.906;7.248;2023-12-14T06:49:09;12.50;;;9.65;;
41663;SDS011;27353;50.906;7.248;2023-12-14T06:51:35;15.90;;;8.73;;
41663;SDS011;27353;50.906;7.248;2023-12-14T06:54:01;15.65;;;9.18;;
41663;SDS011;27353;50.906;7.248;2023-12-14T06:56:27;16.77;;;11.48;;
41663;SDS011;27353;50.906;7.248;2023-12-14T06:58:52;16.55;;;10.90;;
41663;SDS011;27353;50.906;7.248;2023-12-14T07:01:18;14.52;;;9.07;;
41663;SDS011;27353;50.906;7.248;2023-12-14T07:03:44;19.42;;;8.88;;
41663;SDS011;27353;50.906;7.248;2023-12-14T07:06:13;12.38;;;8.77;;
41663;SDS011;27353;50.906;7.248;2023-12-14T07:08:40;16.10;;;8.52;;
41663;SDS011;27353;50.906;7.248;2023-12-14T07:11:06;20.58;;;12.23;;
41663;SDS011;27353;50.906;7.248;2023-12-14T07:13:33;16.50;;;8.73;;
41663;SDS011;27353;50.906;7.248;2023-12-14T07:16:01;13.88;;;9.95;;
41663;SDS011;27353;50.906;7.248;2023-12-14T07:18:34;16.38;;;10.02;;
41663;SDS011;27353;50.906;7.248;2023-12-14T07:21:00;18.67;;;10.15;;
41663;SDS011;27353;50.906;7.248;2023-12-14T07:23:27;18.38;;;9.50;;
41663;SDS011;27353;50.906;7.248;2023-12-14T07:25:52;17.35;;;10.65;;
41663;SDS011;27353;50.906;7.248;2023-12-14T07:28:18;15.07;;;8.55;;
41663;SDS011;27353;50.906;7.248;2023-12-14T07:30:44;15.75;;;9.70;;
41663;SDS011;27353;50.906;7.248;2023-12-14T07:33:11;21.13;;;12.20;;
41663;SDS011;27353;50.906;7.248;2023-12-14T07:35:37;13.80;;;8.90;;
41663;SDS011;27353;50.906;7.248;2023-12-14T07:38:02;15.20;;;8.02;;
41663;SDS011;27353;50.906;7.248;2023-12-14T07:40:28;20.65;;;11.57;;
41663;SDS011;27353;50.906;7.248;2023-12-14T07:42:54;15.77;;;9.13;;
41663;SDS011;27353;50.906;7.248;2023-12-14T07:45:20;17.73;;;11.60;;
41663;SDS011;27353;50.906;7.248;2023-12-14T07:47:45;21.52;;;11.68;;
41663;SDS011;27353;50.906;7.248;2023-12-14T07:50:11;23.65;;;13.00;;
41663;SDS011;27353;50.906;7.248;2023-12-14T07:52:37;20.90;;;13.68;;
41663;SDS011;27353;50.906;7.248;2023-12-14T07:55:04;22.35;;;13.65;;
41663;SDS011;27353;50.906;7.248;2023-12-14T07:57:30;27.02;;;16.90;;
41663;SDS011;27353;50.906;7.248;2023-12-14T07:59:56;26.85;;;14.57;;
41663;SDS011;27353;50.906;7.248;2023-12-14T08:02:22;27.98;;;18.45;;
41663;SDS011;27353;50.906;7.248;2023-12-14T08:04:48;30.17;;;15.70;;
41663;SDS011;27353;50.906;7.248;2023-12-14T08:07:13;28.58;;;16.77;;
41663;SDS011;27353;50.906;7.248;2023-12-14T08:09:39;28.08;;;16.63;;
41663;SDS011;27353;50.906;7.248;2023-12-14T08:12:05;25.77;;;15.45;;
41663;SDS011;27353;50.906;7.248;2023-12-14T08:14:34;30.75;;;17.80;;
41663;SDS011;27353;50.906;7.248;2023-12-14T08:17:03;28.02;;;15.55;;
41663;SDS011;27353;50.906;7.248;2023-12-14T08:19:29;21.88;;;12.80;;
41663;SDS011;27353;50.906;7.248;2023-12-14T08:21:55;28.83;;;15.82;;
41663;SDS011;27353;50.906;7.248;2023-12-14T08:24:21;22.58;;;14.30;;
41663;SDS011;27353;50.906;7.248;2023-12-14T08:26:46;26.65;;;14.73;;
41663;SDS011;27353;50.906;7.248;2023-12-14T08:29:12;27.17;;;15.20;;
41663;SDS011;27353;50.906;7.248;2023-12-14T08:31:37;23.73;;;15.50;;
41663;SDS011;27353;50.906;7.248;2023-12-14T08:34:03;28.90;;;16.90;;
41663;SDS011;27353;50.906;7.248;2023-12-14T08:36:29;21.85;;;15.35;;
41663;SDS011;27353;50.906;7.248;2023-12-14T08:38:56;24.02;;;15.68;;
41663;SDS011;27353;50.906;7.248;2023-12-14T08:41:22;25.00;;;14.02;;
41663;SDS011;27353;50.906;7.248;2023-12-14T08:43:47;28.25;;;15.93;;
41663;SDS011;27353;50.906;7.248;2023-12-14T08:46:13;25.27;;;15.18;;
41663;SDS011;27353;50.906;7.248;2023-12-14T08:48:38;23.83;;;13.65;;
41663;SDS011;27353;50.906;7.248;2023-12-14T08:51:04;24.90;;;13.70;;
41663;SDS011;27353;50.906;7.248;2023-12-14T08:53:30;18.25;;;12.20;;
41663;SDS011;27353;50.906;7.248;2023-12-14T08:55:56;21.80;;;11.90;;
41663;SDS011;27353;50.906;7.248;2023-12-14T08:58:22;21.25;;;13.27;;
41663;SDS011;27353;50.906;7.248;2023-12-14T09:00:48;22.38;;;13.60;;
41663;SDS011;27353;50.906;7.248;2023-12-14T09:03:18;23.60;;;13.10;;
41663;SDS011;27353;50.906;7.248;2023-12-14T09:05:44;24.77;;;15.35;;
41663;SDS011;27353;50.906;7.248;2023-12-14T09:08:10;23.30;;;14.00;;
41663;SDS011;27353;50.906;7.248;2023-12-14T09:10:36;24.52;;;12.05;;
41663;SDS011;27353;50.906;7.248;2023-12-14T09:13:04;22.23;;;11.95;;
41663;SDS011;27353;50.906;7.248;2023-12-14T09:15:31;22.52;;;13.13;;
41663;SDS011;27353;50.906;7.248;2023-12-14T09:17:57;27.00;;;13.35;;
41663;SDS011;27353;50.906;7.248;2023-12-14T09:20:22;23.15;;;13.02;;
41663;SDS011;27353;50.906;7.248;2023-12-14T09:22:48;22.85;;;13.07;;
41663;SDS011;27353;50.906;7.248;2023-12-14T09:25:13;29.25;;;16.52;;
41663;SDS011;27353;50.906;7.248;2023-12-14T09:27:40;28.83;;;14.13;;
41663;SDS011;27353;50.906;7.248;2023-12-14T09:30:06;24.95;;;13.25;;
41663;SDS011;27353;50.906;7.248;2023-12-14T09:32:32;30.73;;;14.77;;
41663;SDS011;27353;50.906;7.248;2023-12-14T09:34:58;27.27;;;15.45;;
41663;SDS011;27353;50.906;7.248;2023-12-14T09:37:24;30.35;;;14.25;;
41663;SDS011;27353;50.906;7.248;2023-12-14T09:39:50;24.38;;;12.50;;
41663;SDS011;27353;50.906;7.248;2023-12-14T09:42:16;22.25;;;13.18;;
41663;SDS011;27353;50.906;7.248;2023-12-14T09:44:45;21.77;;;12.57;;
41663;SDS011;27353;50.906;7.248;2023-12-14T09:47:11;30.10;;;15.30;;
41663;SDS011;27353;50.906;7.248;2023-12-14T09:49:37;23.17;;;13.27;;
41663;SDS011;27353;50.906;7.248;2023-12-14T09:52:06;24.17;;;14.45;;
41663;SDS011;27353;50.906;7.248;2023-12-14T09:54:31;27.50;;;14.18;;
41663;SDS011;27353;50.906;7.248;2023-12-14T09:56:57;26.17;;;11.98;;
41663;SDS011;27353;50.906;7.248;2023-12-14T09:59:23;19.90;;;12.55;;
41663;SDS011;27353;50.906;7.248;2023-12-14T10:01:48;26.83;;;13.70;;
41663;SDS011;27353;50.906;7.248;2023-12-14T10:04:15;26.52;;;15.00;;
41663;SDS011;27353;50.906;7.248;2023-12-14T10:06:43;21.40;;;13.60;;
41663;SDS011;27353;50.906;7.248;2023-12-14T10:09:10;26.02;;;15.57;;
41663;SDS011;27353;50.906;7.248;2023-12-14T10:11:41;21.17;;;13.70;;
41663;SDS011;27353;50.906;7.248;2023-12-14T10:14:20;21.75;;;13.88;;
41663;SDS011;27353;50.906;7.248;2023-12-14T10:16:48;28.63;;;14.15;;
41663;SDS011;27353;50.906;7.248;2023-12-14T10:19:16;25.35;;;15.52;;
41663;SDS011;27353;50.906;7.248;2023-12-14T10:21:48;30.65;;;14.05;;
41663;SDS011;27353;50.906;7.248;2023-12-14T10:24:15;28.60;;;13.88;;
41663;SDS011;27353;50.906;7.248;2023-12-14T10:26:41;30.00;;;15.40;;
41663;SDS011;27353;50.906;7.248;2023-12-14T10:29:10;27.25;;;15.82;;
41663;SDS011;27353;50.906;7.248;2023-12-14T10:31:36;27.35;;;15.27;;
41663;SDS011;27353;50.906;7.248;2023-12-14T10:34:04;23.10;;;14.23;;
41663;SDS011;27353;50.906;7.248;2023-12-14T10:36:30;28.00;;;16.38;;
41663;SDS011;27353;50.906;7.248;2023-12-14T10:38:56;36.42;;;16.83;;
41663;SDS011;27353;50.906;7.248;2023-12-14T10:41:23;23.05;;;14.13;;
41663;SDS011;27353;50.906;7.248;2023-12-14T10:43:53;33.65;;;19.65;;
41663;SDS011;27353;50.906;7.248;2023-12-14T10:46:20;34.88;;;19.15;;
41663;SDS011;27353;50.906;7.248;2023-12-14T10:48:49;41.25;;;21.55;;
41663;SDS011;27353;50.906;7.248;2023-12-14T10:51:17;38.17;;;20.80;;
41663;SDS011;27353;50.906;7.248;2023-12-14T10:53:44;37.58;;;19.52;;
41663;SDS011;27353;50.906;7.248;2023-12-14T10:56:13;45.55;;;21.67;;
41663;SDS011;27353;50.906;7.248;2023-12-14T10:58:50;41.90;;;20.45;;
41663;SDS011;27353;50.906;7.248;2023-12-14T11:01:21;46.13;;;24.63;;
41663;SDS011;27353;50.906;7.248;2023-12-14T11:03:49;43.35;;;23.48;;
41663;SDS011;27353;50.906;7.248;2023-12-14T11:08:53;39.42;;;23.92;;
41663;SDS011;27353;50.906;7.248;2023-12-14T11:11:20;43.47;;;24.08;;
41663;SDS011;27353;50.906;7.248;2023-12-14T11:13:50;48.35;;;24.92;;
41663;SDS011;27353;50.906;7.248;2023-12-14T11:16:21;44.70;;;22.27;;
41663;SDS011;27353;50.906;7.248;2023-12-14T11:18:47;47.22;;;23.08;;
41663;SDS011;27353;50.906;7.248;2023-12-14T11:21:17;45.20;;;21.65;;
41663;SDS011;27353;50.906;7.248;2023-12-14T11:23:45;41.47;;;23.75;;
41663;SDS011;27353;50.906;7.248;2023-12-14T11:26:10;42.60;;;21.05;;
41663;SDS011;27353;50.906;7.248;2023-12-14T11:28:37;44.10;;;22.52;;
41663;SDS011;27353;50.906;7.248;2023-12-14T11:31:09;44.67;;;22.55;;
41663;SDS011;27353;50.906;7.248;2023-12-14T11:33:36;37.80;;;22.30;;
41663;SDS011;27353;50.906;7.248;2023-12-14T11:36:02;45.08;;;22.35;;
41663;SDS011;27353;50.906;7.248;2023-12-14T11:38:28;36.10;;;20.98;;
41663;SDS011;27353;50.906;7.248;2023-12-14T11:40:57;34.42;;;20.75;;
41663;SDS011;27353;50.906;7.248;2023-12-14T11:43:23;44.65;;;24.67;;
41663;SDS011;27353;50.906;7.248;2023-12-14T11:45:51;41.97;;;24.08;;
41663;SDS011;27353;50.906;7.248;2023-12-14T11:48:17;39.30;;;21.63;;
41663;SDS011;27353;50.906;7.248;2023-12-14T11:50:44;43.95;;;21.42;;
41663;SDS011;27353;50.906;7.248;2023-12-14T11:53:10;35.00;;;19.13;;
41663;SDS011;27353;50.906;7.248;2023-12-14T11:55:37;47.13;;;23.42;;
41663;SDS011;27353;50.906;7.248;2023-12-14T11:58:05;44.53;;;22.05;;
41663;SDS011;27353;50.906;7.248;2023-12-14T12:00:31;39.55;;;21.98;;
41663;SDS011;27353;50.906;7.248;2023-12-14T12:05:43;42.50;;;23.20;;
41663;SDS011;27353;50.906;7.248;2023-12-14T12:08:13;45.38;;;23.80;;
41663;SDS011;27353;50.906;7.248;2023-12-14T12:10:40;38.83;;;22.13;;
41663;SDS011;27353;50.906;7.248;2023-12-14T12:13:11;36.15;;;19.83;;
41663;SDS011;27353;50.906;7.248;2023-12-14T12:15:38;30.20;;;17.60;;
41663;SDS011;27353;50.906;7.248;2023-12-14T12:18:08;33.40;;;18.38;;
41663;SDS011;27353;50.906;7.248;2023-12-14T12:20:35;40.88;;;22.50;;
41663;SDS011;27353;50.906;7.248;2023-12-14T12:23:01;33.63;;;17.40;;
41663;SDS011;27353;50.906;7.248;2023-12-14T12:25:27;27.58;;;15.65;;
41663;SDS011;27353;50.906;7.248;2023-12-14T12:27:56;28.17;;;18.45;;
41663;SDS011;27353;50.906;7.248;2023-12-14T12:30:23;26.08;;;16.00;;
41663;SDS011;27353;50.906;7.248;2023-12-14T12:32:49;26.80;;;14.98;;
41663;SDS011;27353;50.906;7.248;2023-12-14T12:35:16;35.00;;;19.40;;
41663;SDS011;27353;50.906;7.248;2023-12-14T12:37:43;28.27;;;16.95;;
41663;SDS011;27353;50.906;7.248;2023-12-14T12:40:09;27.30;;;16.98;;
41663;SDS011;27353;50.906;7.248;2023-12-14T12:42:35;28.55;;;18.23;;
41663;SDS011;27353;50.906;7.248;2023-12-14T12:45:00;28.48;;;17.08;;
41663;SDS011;27353;50.906;7.248;2023-12-14T12:47:26;32.38;;;17.92;;
41663;SDS011;27353;50.906;7.248;2023-12-14T12:49:52;35.05;;;19.30;;
41663;SDS011;27353;50.906;7.248;2023-12-14T12:52:17;36.40;;;19.75;;
41663;SDS011;27353;50.906;7.248;2023-12-14T12:54:43;33.20;;;19.25;;
41663;SDS011;27353;50.906;7.248;2023-12-14T12:57:09;34.40;;;19.85;;
41663;SDS011;27353;50.906;7.248;2023-12-14T12:59:34;27.42;;;15.93;;
41663;SDS011;27353;50.906;7.248;2023-12-14T13:02:00;27.50;;;17.00;;
41663;SDS011;27353;50.906;7.248;2023-12-14T13:04:27;31.80;;;19.50;;
41663;SDS011;27353;50.906;7.248;2023-12-14T13:06:55;35.22;;;21.80;;
41663;SDS011;27353;50.906;7.248;2023-12-14T13:09:21;33.97;;;19.08;;
41663;SDS011;27353;50.906;7.248;2023-12-14T13:11:47;28.60;;;16.63;;
41663;SDS011;27353;50.906;7.248;2023-12-14T13:14:13;35.05;;;19.80;;
41663;SDS011;27353;50.906;7.248;2023-12-14T13:16:40;30.67;;;17.92;;
41663;SDS011;27353;50.906;7.248;2023-12-14T13:19:06;32.83;;;17.60;;
41663;SDS011;27353;50.906;7.248;2023-12-14T13:21:32;34.80;;;20.80;;
41663;SDS011;27353;50.906;7.248;2023-12-14T13:24:01;34.15;;;18.63;;
41663;SDS011;27353;50.906;7.248;2023-12-14T13:26:27;31.63;;;18.42;;
41663;SDS011;27353;50.906;7.248;2023-12-14T13:28:53;33.35;;;19.25;;
41663;SDS011;27353;50.906;7.248;2023-12-14T13:31:19;33.38;;;19.50;;
41663;SDS011;27353;50.906;7.248;2023-12-14T13:33:45;120.55;;;62.30;;
41663;SDS011;27353;50.906;7.248;2023-12-14T13:36:12;34.85;;;19.17;;
41663;SDS011;27353;50.906;7.248;2023-12-14T13:38:39;36.83;;;21.08;;
41663;SDS011;27353;50.906;7.248;2023-12-14T13:41:05;132.98;;;69.70;;
41663;SDS011;27353;50.906;7.248;2023-12-14T13:43:31;44.08;;;23.40;;
41663;SDS011;27353;50.906;7.248;2023-12-14T13:45:57;31.73;;;20.23;;
41663;SDS011;27353;50.906;7.248;2023-12-14T13:48:23;35.70;;;20.52;;
41663;SDS011;27353;50.906;7.248;2023-12-14T13:50:50;31.40;;;18.25;;
41663;SDS011;27353;50.906;7.248;2023-12-14T13:53:15;30.67;;;17.77;;
41663;SDS011;27353;50.906;7.248;2023-12-14T13:55:41;29.63;;;17.27;;
41663;SDS011;27353;50.906;7.248;2023-12-14T13:58:07;33.65;;;16.38;;
41663;SDS011;27353;50.906;7.248;2023-12-14T14:00:32;38.72;;;20.27;;
41663;SDS011;27353;50.906;7.248;2023-12-14T14:02:59;28.13;;;15.90;;
41663;SDS011;27353;50.906;7.248;2023-12-14T14:05:25;32.78;;;16.48;;
41663;SDS011;27353;50.906;7.248;2023-12-14T14:07:51;38.33;;;22.48;;
41663;SDS011;27353;50.906;7.248;2023-12-14T14:10:17;30.80;;;18.40;;
41663;SDS011;27353;50.906;7.248;2023-12-14T14:12:44;23.05;;;13.55;;
41663;SDS011;27353;50.906;7.248;2023-12-14T14:15:10;29.88;;;18.13;;
41663;SDS011;27353;50.906;7.248;2023-12-14T14:17:36;28.05;;;15.95;;
41663;SDS011;27353;50.906;7.248;2023-12-14T14:20:01;24.67;;;16.90;;
41663;SDS011;27353;50.906;7.248;2023-12-14T14:22:27;27.80;;;15.35;;
41663;SDS011;27353;50.906;7.248;2023-12-14T14:24:53;27.83;;;14.90;;
41663;SDS011;27353;50.906;7.248;2023-12-14T14:27:19;28.38;;;16.35;;